Arrington, Tennessee
Current Conditions -  °F | °C
As of 6:53 PM on Tuesday 25 Nov 2014 (Local Time) from KBNA Reporting Station
Overcast Overcast  
Wind Chill: 40°   Ceiling: 15000
Heat Index: 44°   Visibility: 10mi
Dew Point: 26°   Wind: 7mph
Humidity: 49%   Direction: 360°N
Pressure: 30.16"   Gusts: NA
Location:  35.87°N, 86.71°W
Report Text: KBNA 260053Z 36006KT 10SM OVC150 07/M03 A3016 RMK AO2 SLP215 T00671033
Loading
Personal Weather Stations






























Interactive Weather Map New forecast layout! Learn more

10-Day Weather Forecast

Advertisements
Track Severe Weather on mobile